Maybole, United Kingdom
Current Conditions -  °F | °C
As of 9:20 AM on Sunday 26 Oct 2014 (Local Time) from EGPK Reporting Station
Light Rain Light Rain  
Wind Chill: 12°   Ceiling: Unl
Heat Index: 12°   Visibility: 6mi
Dew Point:   Wind: 21mph
Humidity: 82%   Direction: 200°SSW
Pressure: 29.71"   Gusts: 32mph
Location:  55.36°N, 4.68°W
Report Text: EGPK 260820Z 20018G28KT 9999 -RA FEW020 SCT030 12/09 Q1006
Loading
Personal Weather Stations






























Interactive Weather Map
Tropical Storm Tracking
New forecast layout! Learn more

10-Day Weather Forecast

Advertisements
Track Severe Weather on mobile